UUEE/SVO METAR and TAF weather

Enter ICAO airport designator
Station Type Date Time Source
UUEE METAR 2021/09/24 03:30 UTC NOAA

UUEE 240330Z 19004MPS 9999 SCT/// 07/05 Q1004 R88/290051 NOSIG


Station Type Date Time Source
UUEE Decoded METAR 2021/09/24 03:30 UTC NOAA

Moscow / Sheremet'Ye , Russia (UUEE) 55-59N 037-30E
Sep 23, 2021 - 11:30 PM EDT / 2021.09.24 0330 UTC
Wind: from the S (190 degrees) at 9 MPH (8 KT):0
Visibility: greater than 7 mile(s):0
Sky conditions: partly cloudy
Temperature: 44 F (7 C)
Dew Point: 41 F (5 C)
Relative Humidity: 87%
Pressure (altimeter): 29.65 in. Hg (1004 hPa)
ob: UUEE 240330Z 19004MPS 9999 SCT/// 07/05 Q1004 R88/290051 NOSIG
cycle: 3

Station Type Date Time Source
UUEE TAF 2021/09/24 03:22 UTC NOAA

TAF UUEE 240150Z 2403/2503 16005MPS 6000 BKN006 TX11/2412Z TN06/2502Z
TEMPO 2403/2405 1000 -DZ BR BKN002
BECMG 2407/2409 FEW005 BKN011
TEMPO 2409/2417 16008G14MPS

Example: see airport list